This is the latest recevied weather packets stored in our database for station/object OE3UKW. If no packets are shown the sender has not sent any weather packets the latest 10 day(s).
| Time | Temp. | Humidity | Pressure | Rain* | Wind** | Luminosity | Snow |
|---|---|---|---|---|---|---|---|
| 1777880471 | 19.44° C | 37% | 1016.8 hPa | 0 mm | - | 562 W/m² | - |
| 1777879871 | 19.44° C | 39% | 1017 hPa | 0 mm | - | 566 W/m² | - |
| 1777879271 | 19.44° C | 39% | 1016.9 hPa | 0 mm | - | 585 W/m² | - |
| 1777878671 | 18.89° C | 40% | 1016.8 hPa | 0 mm | - | 544 W/m² | - |
| 1777878071 | 18.33° C | 41% | 1016.8 hPa | 0 mm | - | 524 W/m² | - |
| 1777877471 | 17.78° C | 43% | 1016.8 hPa | 0 mm | - | 466 W/m² | - |
| 1777876871 | 17.22° C | 43% | 1016.8 hPa | 0 mm | - | 368 W/m² | - |
| 1777876271 | 16.67° C | 43% | 1016.9 hPa | 0 mm | - | 289 W/m² | - |
| 1777875671 | 16.67° C | 42% | 1016.7 hPa | 0 mm | - | 200 W/m² | - |
| 1777875071 | 16.67° C | 44% | 1016.7 hPa | 0 mm | - | 264 W/m² | - |
| 1777874471 | 16.67° C | 44% | 1016.6 hPa | 0 mm | - | 302 W/m² | - |
| 1777873871 | 16.11° C | 45% | 1016.5 hPa | 0 mm | - | 266 W/m² | - |
| 1777873286 | 15.56° C | 46% | 1016.4 hPa | 0 mm | - | 248 W/m² | - |
| 1777872671 | 15° C | 46% | 1016.3 hPa | 0 mm | - | 204 W/m² | - |
| 1777872071 | 15° C | 46% | 1016.2 hPa | 0 mm | - | 222 W/m² | - |
| 1777871471 | 14.44° C | 47% | 1016.4 hPa | 0 mm | - | 182 W/m² | - |
| 1777870870 | 14.44° C | 48% | 1016.3 hPa | 0 mm | - | 162 W/m² | - |
| 1777870270 | 13.89° C | 48% | 1016.2 hPa | 0 mm | - | 116 W/m² | - |
| 1777869671 | 13.33° C | 49% | 1016.2 hPa | 0 mm | - | 95 W/m² | - |
| 1777869070 | 13.33° C | 50% | 1016.1 hPa | 0 mm | - | 86 W/m² | - |
| 1777868471 | 12.78° C | 50% | 1016.1 hPa | 0 mm | - | 64 W/m² | - |
| 1777867871 | 12.78° C | 50% | 1015.9 hPa | 0 mm | - | 37 W/m² | - |
| 1777867270 | 12.78° C | 49% | 1016.1 hPa | 0 mm | - | 25 W/m² | - |
| 1777866671 | 12.78° C | 49% | 1016.1 hPa | 0 mm | - | 21 W/m² | - |
| 1777866070 | 12.78° C | 49% | 1016.1 hPa | 0 mm | - | 14 W/m² | - |
* Rain latest hour (hover to see other rain measurements)
** Current wind speed in m/s (hover to see current wind gust speed)